Impacts TAF Board
For situational awareness. Not to be used for flight planning purposes.
IDs:

KIAH - Houston/Bush Intl, TX, US

Issued at 2320 UTC 24 Mar 2019
Updated at 0141 UTC 25 Mar 2019
Potential Impact None Slight Moderate High
Time<<25/14Z 25/15Z 25/16Z 25/17Z 25/18Z 25/19Z 25/20Z 25/21Z 25/22Z 25/23Z 26/00Z 26/01Z 26/02Z>>
Type PRVL PRVL PRVL PRVL PRVL PRVL PRVL PRVL PRVL PRVL PRVL PRVL PRVL
VIS 4 6 6 >6 >6 >6 >6 >6 >6 >6 >6 >6 >6
CIG 4 9 9 15 15 15 25 25 25 25 50 50 50
Cover OVC OVC OVC OVC OVC OVC BKN BKN BKN BKN BKN BKN BKN
FltCat LIFR IFR IFR MVFR MVFR MVFR MVFR MVFR MVFR MVFR VFR VFR VFR
WX BR BR BR -- -- -- VCSH VCSH VCSH VCSH -- -- --
WDir 190 240 240 280 280 280 320 320 320 320 360 360 360
WSpd 4 5 5 7 7 7 8 8 8 8 5 5 5
WGst -- -- -- -- -- -- -- -- -- -- -- -- --
Raw TAF
KIAH 242320Z 2500/2606 15008KT P6SM BKN025 BKN060
  FM250600 18005KT 6SM BR BKN007 BKN015
  FM251000 19004KT 4SM BR OVC004
  FM251500 24005KT 6SM BR OVC009
  FM251700 28007KT P6SM OVC015
  FM252000 32008KT P6SM VCSH SCT015 BKN025
  FM260000 36005KT P6SM BKN050


METAR Board
Radar Display
Forecast Discussion
For situational awareness. Not to be used for flight planning purposes.